createdAt,value
2017-12-16T00:00:05.291Z,15.0
2017-12-16T00:01:08.186Z,13.5
2017-12-16T00:02:10.282Z,14.8
2017-12-16T00:03:13.005Z,14.2
2017-12-16T00:04:15.063Z,14.5
2017-12-16T00:05:17.154Z,14.6
2017-12-16T00:06:19.239Z,13.6
2017-12-16T00:07:21.404Z,13.8
2017-12-16T00:08:23.583Z,13.3
2017-12-16T00:09:25.699Z,13.8
2017-12-16T00:10:27.830Z,13.4
2017-12-16T00:11:30.714Z,13.1
2017-12-16T00:12:32.883Z,13.1
2017-12-16T00:13:34.977Z,14.0
2017-12-16T00:14:37.063Z,13.9
2017-12-16T00:15:39.174Z,14.7
2017-12-16T00:16:41.289Z,15.3
2017-12-16T00:17:43.430Z,14.7
2017-12-16T00:18:45.491Z,14.1
2017-12-16T00:19:48.510Z,14.6
2017-12-16T00:20:50.590Z,13.8
2017-12-16T00:21:52.704Z,14.9
2017-12-16T00:22:54.823Z,14.0
2017-12-16T00:23:56.994Z,14.4
2017-12-16T00:24:59.121Z,13.0
2017-12-16T00:26:01.180Z,13.6
2017-12-16T00:27:03.285Z,13.1
2017-12-16T00:28:05.440Z,13.6
2017-12-16T00:29:07.516Z,13.6
2017-12-16T00:30:09.627Z,12.9
2017-12-16T00:31:11.704Z,14.0
2017-12-16T00:32:13.792Z,13.6
2017-12-16T00:33:15.867Z,13.7
2017-12-16T00:34:17.976Z,13.8
2017-12-16T00:35:20.054Z,14.1
2017-12-16T00:36:22.175Z,13.9
2017-12-16T00:37:24.338Z,14.0
2017-12-16T00:38:29.492Z,15.0
2017-12-16T00:40:20.527Z,13.7
2017-12-16T00:41:22.717Z,13.2
2017-12-16T00:42:24.963Z,13.6
2017-12-16T00:43:27.238Z,12.4
2017-12-16T00:44:29.432Z,12.4
2017-12-16T00:45:31.642Z,12.8
2017-12-16T00:46:34.783Z,12.3
2017-12-16T00:47:37.020Z,12.9
2017-12-16T00:48:39.291Z,12.0
2017-12-16T00:49:41.436Z,11.8
2017-12-16T00:50:43.707Z,12.0
2017-12-16T00:51:45.925Z,12.1
2017-12-16T00:52:48.145Z,10.0
2017-12-16T00:53:51.349Z,10.0
2017-12-16T00:54:53.603Z,10.3
2017-12-16T00:55:56.442Z,10.0
2017-12-16T00:56:58.764Z,9.7
2017-12-16T00:58:02.037Z,9.6
2017-12-16T00:59:05.319Z,9.4
2017-12-16T01:00:07.640Z,9.8
2017-12-16T01:01:09.932Z,9.5
2017-12-16T01:02:12.243Z,9.8
2017-12-16T01:03:14.632Z,9.3
2017-12-16T01:04:17.414Z,9.0
2017-12-16T01:05:19.697Z,9.4
2017-12-16T01:06:21.967Z,9.0
2017-12-16T01:07:24.312Z,8.7
2017-12-16T01:08:26.596Z,8.1
2017-12-16T01:09:29.618Z,8.2
2017-12-16T01:10:32.816Z,8.6
2017-12-16T01:11:35.150Z,7.8
2017-12-16T01:12:37.430Z,7.9
2017-12-16T01:13:39.726Z,7.9
2017-12-16T01:14:42.108Z,7.8
2017-12-16T01:15:45.308Z,8.6
2017-12-16T01:17:12.224Z,8.1
2017-12-16T01:18:14.403Z,8.3
2017-12-16T01:19:16.668Z,8.6
2017-12-16T01:20:20.321Z,7.9
2017-12-16T01:21:22.593Z,8.4
2017-12-16T01:22:24.946Z,8.1
2017-12-16T01:23:27.245Z,8.7
2017-12-16T01:24:29.619Z,8.5
2017-12-16T01:25:32.029Z,8.8
2017-12-16T01:26:34.378Z,8.5
2017-12-16T01:27:36.802Z,8.6
2017-12-16T01:28:40.058Z,9.3
2017-12-16T01:29:42.406Z,8.0
2017-12-16T01:30:44.781Z,9.4
2017-12-16T01:31:47.102Z,8.6
2017-12-16T01:32:49.549Z,9.7
2017-12-16T01:33:51.930Z,9.7
2017-12-16T01:34:54.887Z,10.2
2017-12-16T01:35:57.230Z,9.6
2017-12-16T01:36:59.556Z,9.3
2017-12-16T01:38:03.959Z,8.8
2017-12-16T01:39:06.908Z,9.2
2017-12-16T01:40:09.162Z,9.2
2017-12-16T01:41:12.990Z,9.5
2017-12-16T01:42:15.352Z,9.1
2017-12-16T01:43:17.691Z,9.3
2017-12-16T01:44:20.048Z,8.8
2017-12-16T01:45:22.402Z,8.8
2017-12-16T01:46:25.956Z,9.2
2017-12-16T01:47:32.685Z,9.0
2017-12-16T01:48:34.075Z,9.6
2017-12-16T01:49:36.413Z,10.1
2017-12-16T01:50:39.359Z,10.4
2017-12-16T01:51:41.647Z,10.1
2017-12-16T01:52:44.112Z,11.5
2017-12-16T01:53:46.413Z,12.3
2017-12-16T01:54:48.710Z,11.7
2017-12-16T01:55:51.051Z,11.7
2017-12-16T01:56:53.340Z,12.6
2017-12-16T01:57:55.671Z,13.7
2017-12-16T01:58:58.027Z,14.9
2017-12-16T02:00:00.275Z,14.3
2017-12-16T02:01:02.636Z,15.1
2017-12-16T02:02:04.941Z,14.5
2017-12-16T02:03:07.235Z,15.0
2017-12-16T02:04:10.047Z,14.7
2017-12-16T02:05:12.412Z,13.8
2017-12-16T02:06:14.764Z,14.3
2017-12-16T02:07:17.080Z,13.4
2017-12-16T02:08:19.326Z,13.5
2017-12-16T02:09:21.629Z,13.7
2017-12-16T02:10:23.968Z,14.5
2017-12-16T02:11:26.306Z,14.3
2017-12-16T02:12:28.601Z,14.4
2017-12-16T02:13:30.914Z,13.5
2017-12-16T02:14:33.237Z,14.0
2017-12-16T02:15:36.368Z,14.7
2017-12-16T02:16:38.714Z,14.9
2017-12-16T02:17:40.975Z,14.7
2017-12-16T02:18:43.363Z,13.9
2017-12-16T02:19:45.709Z,13.8
2017-12-16T02:20:49.603Z,12.7
2017-12-16T02:21:51.898Z,13.5
2017-12-16T02:22:54.121Z,13.4
2017-12-16T02:23:57.186Z,11.8
2017-12-16T02:24:58.595Z,12.9
2017-12-16T02:26:01.665Z,12.7
2017-12-16T02:27:04.020Z,12.6
2017-12-16T02:28:06.363Z,12.1
2017-12-16T02:29:08.568Z,13.1
2017-12-16T02:30:10.885Z,12.0
2017-12-16T02:31:13.236Z,12.9
2017-12-16T02:32:15.652Z,13.3
2017-12-16T02:33:18.795Z,13.4
2017-12-16T02:34:21.077Z,14.0
2017-12-16T02:35:23.343Z,13.8
2017-12-16T02:36:25.657Z,13.2
2017-12-16T02:37:27.946Z,14.1
2017-12-16T02:38:30.157Z,13.7
2017-12-16T02:40:01.030Z,13.9
2017-12-16T02:41:03.374Z,14.2
2017-12-16T02:42:05.702Z,13.2
2017-12-16T02:43:07.965Z,13.0
2017-12-16T02:44:10.265Z,12.9
2017-12-16T02:45:13.478Z,12.2
2017-12-16T02:46:15.867Z,12.2
2017-12-16T02:47:18.174Z,12.3
2017-12-16T02:48:21.272Z,13.1
2017-12-16T02:49:23.439Z,13.7
2017-12-16T02:50:25.758Z,13.2
2017-12-16T02:51:28.032Z,12.9
2017-12-16T02:52:30.783Z,14.2
2017-12-16T02:53:33.052Z,14.2
2017-12-16T02:54:36.055Z,13.1
2017-12-16T03:01:08.325Z,11.2
2017-12-16T03:02:10.208Z,11.5
2017-12-16T03:03:12.139Z,13.2
2017-12-16T03:04:14.041Z,14.3
2017-12-16T03:05:15.979Z,14.8
2017-12-16T03:06:17.975Z,15.7
2017-12-16T03:07:20.091Z,15.1
2017-12-16T03:08:22.410Z,15.6
2017-12-16T03:09:24.676Z,16.1
2017-12-16T03:10:26.973Z,16.1
2017-12-16T03:11:29.305Z,15.6
2017-12-16T03:12:31.519Z,15.4
2017-12-16T03:13:33.832Z,14.5
2017-12-16T03:14:36.088Z,14.7
2017-12-16T03:15:38.306Z,14.7
2017-12-16T03:16:40.659Z,14.1
2017-12-16T03:17:42.905Z,14.1
2017-12-16T03:18:45.207Z,14.3
2017-12-16T03:19:47.578Z,13.8
2017-12-16T03:20:49.919Z,14.8
2017-12-16T03:21:52.198Z,14.0
2017-12-16T03:22:54.529Z,13.9
2017-12-16T03:23:56.802Z,13.7
2017-12-16T03:24:59.189Z,13.9
2017-12-16T03:26:01.510Z,13.8
2017-12-16T03:27:03.834Z,12.8
2017-12-16T03:28:06.147Z,13.1
2017-12-16T03:29:08.415Z,13.2
2017-12-16T03:30:10.727Z,13.5
2017-12-16T03:33:37.684Z,13.4
2017-12-16T03:34:39.586Z,13.6
2017-12-16T03:35:41.583Z,13.7
2017-12-16T03:36:43.446Z,13.6
2017-12-16T03:37:45.439Z,14.2
2017-12-16T03:38:47.411Z,13.0
2017-12-16T03:39:49.621Z,13.7
2017-12-16T03:40:51.903Z,13.2
2017-12-16T03:41:54.173Z,14.9
2017-12-16T03:42:56.525Z,14.9
2017-12-16T03:43:58.874Z,13.8
2017-12-16T03:45:01.262Z,13.5
2017-12-16T03:46:03.572Z,13.4
2017-12-16T03:47:05.929Z,13.7
2017-12-16T03:48:08.335Z,13.3
2017-12-16T03:49:10.621Z,13.5
2017-12-16T03:50:12.940Z,14.1
2017-12-16T03:51:15.247Z,14.0
2017-12-16T03:52:17.569Z,13.4
2017-12-16T03:53:19.902Z,13.3
2017-12-16T03:54:22.165Z,13.1
2017-12-16T03:55:24.488Z,12.9
2017-12-16T03:56:26.824Z,13.4
2017-12-16T03:57:29.164Z,13.1
2017-12-16T03:58:31.445Z,13.8
2017-12-16T03:59:33.778Z,14.3
2017-12-16T04:00:36.086Z,13.9
2017-12-16T04:01:38.582Z,13.4
2017-12-16T04:02:40.833Z,13.6
2017-12-16T04:03:43.084Z,13.5
2017-12-16T04:04:45.399Z,13.4
2017-12-16T04:05:47.705Z,13.3
2017-12-16T04:06:50.013Z,13.8
2017-12-16T04:07:52.371Z,13.5
2017-12-16T04:08:54.680Z,14.0
2017-12-16T04:09:57.184Z,14.3
2017-12-16T04:10:59.468Z,13.5
2017-12-16T04:12:01.871Z,14.1
2017-12-16T04:13:04.292Z,13.9
2017-12-16T04:14:06.539Z,13.8
2017-12-16T04:15:08.824Z,14.3
2017-12-16T04:16:11.065Z,12.9
2017-12-16T04:17:13.444Z,15.9
2017-12-16T04:18:15.782Z,13.6
2017-12-16T04:19:18.092Z,13.8
2017-12-16T04:20:20.418Z,15.1
2017-12-16T04:21:22.810Z,15.1
2017-12-16T04:22:25.191Z,14.5
2017-12-16T04:23:27.499Z,15.1
2017-12-16T04:24:29.855Z,15.6
2017-12-16T04:25:32.232Z,14.1
2017-12-16T04:26:34.578Z,15.9
2017-12-16T04:27:36.941Z,15.9
2017-12-16T04:28:39.244Z,15.4
2017-12-16T04:29:41.595Z,16.1
2017-12-16T04:30:43.953Z,15.2
2017-12-16T04:31:46.275Z,16.7
2017-12-16T04:32:48.696Z,16.4
2017-12-16T04:33:51.009Z,15.3
2017-12-16T04:34:53.327Z,15.8
2017-12-16T04:35:55.567Z,15.1
2017-12-16T04:36:57.920Z,15.2
2017-12-16T04:38:00.290Z,17.4
2017-12-16T04:39:02.673Z,16.3
2017-12-16T04:40:05.092Z,16.6
2017-12-16T04:41:07.436Z,15.6
2017-12-16T04:42:09.768Z,17.4
2017-12-16T04:43:12.062Z,16.5
2017-12-16T04:44:14.377Z,16.5
2017-12-16T04:45:16.774Z,16.8
2017-12-16T04:46:19.075Z,16.5
2017-12-16T04:47:21.387Z,17.1
2017-12-16T04:48:23.727Z,18.4
2017-12-16T04:49:26.119Z,18.4
2017-12-16T04:50:28.486Z,18.8
2017-12-16T04:51:30.832Z,20.2
2017-12-16T04:52:33.246Z,20.3
2017-12-16T04:53:35.606Z,19.7
2017-12-16T04:54:38.011Z,20.0
2017-12-16T04:55:40.397Z,20.3
2017-12-16T04:56:42.833Z,20.9
2017-12-16T04:57:45.215Z,20.8
2017-12-16T04:58:47.544Z,21.2
2017-12-16T04:59:49.966Z,19.9
2017-12-16T05:00:52.354Z,21.7
2017-12-16T05:01:54.696Z,20.1
2017-12-16T05:02:57.070Z,21.1
2017-12-16T05:03:59.526Z,21.8
2017-12-16T05:05:01.902Z,22.7
2017-12-16T05:06:04.346Z,21.2
2017-12-16T05:07:06.762Z,20.6
2017-12-16T05:08:09.077Z,22.4
2017-12-16T05:09:11.483Z,22.0
2017-12-16T05:10:13.898Z,20.5
2017-12-16T05:11:16.229Z,22.9
2017-12-16T05:12:18.638Z,21.9
2017-12-16T05:13:21.041Z,21.3
2017-12-16T05:14:23.479Z,22.5
2017-12-16T05:15:25.888Z,23.0
2017-12-16T05:16:28.189Z,22.2
2017-12-16T05:17:30.420Z,21.9
2017-12-16T05:18:32.789Z,22.8
2017-12-16T05:19:35.104Z,22.1
2017-12-16T05:20:37.411Z,21.9
2017-12-16T05:21:39.706Z,22.4
2017-12-16T05:22:42.093Z,22.2
2017-12-16T05:23:44.474Z,23.3
2017-12-16T05:24:46.876Z,23.3
2017-12-16T05:25:49.160Z,23.3
2017-12-16T05:26:51.533Z,24.4
2017-12-16T05:27:53.830Z,23.2
2017-12-16T05:28:56.168Z,23.6
2017-12-16T05:29:58.476Z,23.7
2017-12-16T05:31:00.757Z,23.5
2017-12-16T05:32:03.073Z,23.1
2017-12-16T05:33:05.416Z,23.1
2017-12-16T05:34:07.783Z,24.4
2017-12-16T05:35:10.061Z,23.9
2017-12-16T05:36:12.418Z,24.0
2017-12-16T05:37:14.806Z,23.6
2017-12-16T05:38:17.101Z,24.6
2017-12-16T05:39:19.400Z,25.7
2017-12-16T05:40:21.693Z,23.7
2017-12-16T05:41:24.056Z,23.8
2017-12-16T05:42:26.298Z,24.9
2017-12-16T05:43:28.613Z,25.0
2017-12-16T05:44:30.867Z,30.9
2017-12-16T05:45:33.137Z,26.4
2017-12-16T05:46:35.377Z,26.0
2017-12-16T05:47:37.662Z,25.3
2017-12-16T05:48:39.923Z,29.7
2017-12-16T05:49:42.256Z,32.1
2017-12-16T05:50:44.669Z,34.5
2017-12-16T05:51:47.032Z,33.5
2017-12-16T05:52:49.361Z,29.1
2017-12-16T05:53:51.697Z,29.5
2017-12-16T05:54:54.022Z,28.4
2017-12-16T05:55:56.294Z,28.5
2017-12-16T05:56:58.639Z,29.4
2017-12-16T05:58:00.991Z,29.4
2017-12-16T05:59:03.326Z,28.8
2017-12-16T06:00:05.633Z,28.2
2017-12-16T06:01:08.006Z,30.8
2017-12-16T06:02:10.362Z,30.3
2017-12-16T06:03:12.707Z,28.2
2017-12-16T06:04:15.058Z,28.4
2017-12-16T06:05:17.380Z,28.3
2017-12-16T06:06:19.753Z,29.7
2017-12-16T06:07:22.191Z,28.1
2017-12-16T06:08:24.600Z,28.5
2017-12-16T06:09:27.080Z,29.1
2017-12-16T06:10:29.575Z,27.5
2017-12-16T06:11:31.848Z,28.0
2017-12-16T06:12:34.274Z,30.0
2017-12-16T06:13:36.758Z,28.3
2017-12-16T06:14:39.208Z,32.8
2017-12-16T06:15:41.634Z,32.0
2017-12-16T06:16:43.967Z,28.8
2017-12-16T06:17:46.284Z,27.1
2017-12-16T06:18:48.707Z,28.2
2017-12-16T06:19:51.026Z,28.1
2017-12-16T06:20:53.472Z,28.1
2017-12-16T06:21:55.903Z,27.7
2017-12-16T06:22:58.259Z,28.8
2017-12-16T06:24:00.618Z,28.5
2017-12-16T06:25:03.086Z,27.6
2017-12-16T06:26:05.483Z,27.2
2017-12-16T06:27:07.899Z,28.5
2017-12-16T06:28:10.240Z,27.9
2017-12-16T06:29:12.632Z,27.7
2017-12-16T06:30:14.950Z,26.4
2017-12-16T06:31:17.355Z,26.4
2017-12-16T06:32:19.686Z,26.9
2017-12-16T06:33:22.077Z,26.8
2017-12-16T06:34:24.541Z,26.6
2017-12-16T06:35:26.916Z,25.5
2017-12-16T06:36:29.286Z,26.1
2017-12-16T06:37:31.590Z,27.5
2017-12-16T06:38:34.125Z,27.4
2017-12-16T06:39:36.562Z,28.9
2017-12-16T06:40:38.896Z,28.6
2017-12-16T06:41:41.327Z,28.5
2017-12-16T06:42:43.694Z,32.0
2017-12-16T06:43:46.062Z,30.5
2017-12-16T06:44:48.497Z,31.3
2017-12-16T06:45:50.838Z,31.8
2017-12-16T06:46:53.162Z,30.9
2017-12-16T06:47:55.538Z,29.6
2017-12-16T06:48:57.809Z,30.6
2017-12-16T06:50:00.145Z,31.1
2017-12-16T06:51:02.538Z,30.6
2017-12-16T06:52:04.813Z,31.3
2017-12-16T06:53:07.087Z,32.0
2017-12-16T06:54:09.439Z,33.0
2017-12-16T06:55:14.889Z,32.1
2017-12-16T07:01:57.197Z,26.8
2017-12-16T07:02:58.898Z,29.1
2017-12-16T07:04:00.618Z,32.5
2017-12-16T07:05:02.394Z,35.2
2017-12-16T07:06:04.036Z,34.3
2017-12-16T07:07:06.069Z,34.2
2017-12-16T07:08:08.213Z,35.3
2017-12-16T07:09:10.400Z,34.0
2017-12-16T07:10:12.501Z,33.9
2017-12-16T07:11:14.697Z,33.1
2017-12-16T07:12:16.931Z,32.8
2017-12-16T07:13:19.115Z,32.8
2017-12-16T07:14:21.216Z,32.6
2017-12-16T07:15:23.305Z,35.0
2017-12-16T07:16:25.377Z,35.4
2017-12-16T07:17:27.560Z,36.1
2017-12-16T07:18:29.614Z,38.4
2017-12-16T07:19:31.677Z,37.8
2017-12-16T07:20:33.962Z,37.1
2017-12-16T07:21:36.049Z,43.4
2017-12-16T07:22:38.102Z,41.1
2017-12-16T07:23:40.191Z,40.2
2017-12-16T07:24:42.293Z,37.1
2017-12-16T07:25:44.464Z,39.6
2017-12-16T07:26:46.570Z,39.6
2017-12-16T07:27:48.620Z,39.0
2017-12-16T07:28:50.718Z,39.9
2017-12-16T07:29:52.812Z,37.7
2017-12-16T07:30:54.961Z,38.3
2017-12-16T07:31:57.052Z,39.5
2017-12-16T07:32:59.203Z,38.2
2017-12-16T07:34:01.309Z,35.9
2017-12-16T07:35:03.454Z,36.1
2017-12-16T07:36:05.514Z,39.4
2017-12-16T07:37:07.666Z,36.0
2017-12-16T07:38:09.782Z,36.7
2017-12-16T07:39:12.095Z,30.3
2017-12-16T07:40:14.224Z,28.8
2017-12-16T07:41:16.399Z,33.3
2017-12-16T07:42:18.792Z,36.7
2017-12-16T07:43:21.108Z,33.4
2017-12-16T07:44:23.265Z,32.6
2017-12-16T07:45:25.544Z,34.5
2017-12-16T07:46:27.742Z,37.9
2017-12-16T07:47:29.858Z,35.2
2017-12-16T07:48:31.948Z,32.9
2017-12-16T07:49:34.052Z,31.0
2017-12-16T07:50:36.348Z,30.1
2017-12-16T07:51:38.548Z,27.5
2017-12-16T07:52:40.660Z,31.3
2017-12-16T07:53:42.765Z,34.8
2017-12-16T07:54:44.934Z,37.1
2017-12-16T07:55:47.030Z,39.2
2017-12-16T07:56:49.295Z,39.6
2017-12-16T07:57:51.394Z,39.4
2017-12-16T07:58:53.553Z,40.4
2017-12-16T07:59:55.754Z,40.9
2017-12-16T08:00:57.909Z,38.5
2017-12-16T08:02:00.083Z,26.6
2017-12-16T08:03:02.208Z,31.0
2017-12-16T08:04:04.455Z,29.2
2017-12-16T08:05:20.466Z,29.7
2017-12-16T08:06:37.219Z,33.5
2017-12-16T08:07:41.127Z,36.2
2017-12-16T08:08:43.120Z,42.7
2017-12-16T08:09:45.297Z,46.3
2017-12-16T08:10:47.486Z,46.2
2017-12-16T08:11:49.728Z,46.8
2017-12-16T08:12:51.818Z,45.5
2017-12-16T08:14:14.838Z,47.5
2017-12-16T08:15:34.447Z,42.3
2017-12-16T08:16:38.729Z,40.6
2017-12-16T08:17:42.052Z,40.1
2017-12-16T08:18:44.448Z,40.6
2017-12-16T08:19:46.770Z,37.3
2017-12-16T08:20:49.174Z,30.5
2017-12-16T08:21:51.409Z,31.0
2017-12-16T08:22:53.804Z,31.0
2017-12-16T08:23:56.180Z,29.1
2017-12-16T08:24:58.450Z,29.0
2017-12-16T08:26:00.720Z,27.9
2017-12-16T08:27:03.066Z,28.1
2017-12-16T08:28:05.335Z,31.0
2017-12-16T08:29:07.676Z,31.7
2017-12-16T08:30:10.018Z,30.4
2017-12-16T08:31:12.382Z,33.2
2017-12-16T08:32:14.728Z,35.0
2017-12-16T08:33:17.132Z,34.8
2017-12-16T08:34:20.354Z,31.2
2017-12-16T08:35:27.054Z,28.6
2017-12-16T08:36:28.665Z,33.3
2017-12-16T08:37:30.385Z,31.2
2017-12-16T08:38:32.162Z,32.1
2017-12-16T08:39:33.870Z,33.2
2017-12-16T08:40:35.652Z,41.7
2017-12-16T08:41:37.367Z,38.3
2017-12-16T08:42:39.120Z,34.2
2017-12-16T08:43:41.439Z,34.4
2017-12-16T08:44:43.169Z,30.8
2017-12-16T08:45:44.879Z,31.1
2017-12-16T08:46:46.583Z,32.0
2017-12-16T08:47:48.283Z,31.6
2017-12-16T08:48:50.403Z,32.2
2017-12-16T08:49:51.733Z,30.4
2017-12-16T08:50:53.456Z,27.7
2017-12-16T08:51:55.194Z,26.0
2017-12-16T08:52:56.928Z,25.6
2017-12-16T08:53:58.685Z,23.7
2017-12-16T08:55:00.437Z,24.5
2017-12-16T08:56:02.274Z,26.5
2017-12-16T08:57:04.072Z,25.3
2017-12-16T08:58:05.745Z,24.3
2017-12-16T08:59:07.431Z,24.0
2017-12-16T09:00:09.253Z,24.2
2017-12-16T09:01:13.762Z,25.3
2017-12-16T09:02:15.529Z,25.3
2017-12-16T09:03:17.354Z,30.5
2017-12-16T09:04:19.062Z,27.9
2017-12-16T09:05:20.813Z,30.2
2017-12-16T09:06:22.534Z,31.0
2017-12-16T09:07:24.247Z,31.3
2017-12-16T09:08:25.980Z,31.9
2017-12-16T09:09:27.708Z,33.4
2017-12-16T09:10:31.178Z,34.3
2017-12-16T09:11:32.871Z,31.7
2017-12-16T09:12:34.614Z,30.7
2017-12-16T09:13:36.393Z,29.9
2017-12-16T09:14:38.152Z,38.6
2017-12-16T09:15:39.852Z,37.6
2017-12-16T09:16:41.733Z,35.0
2017-12-16T09:17:43.440Z,34.8
2017-12-16T09:18:45.220Z,34.3
2017-12-16T09:19:47.106Z,33.9
2017-12-16T09:20:48.823Z,34.2
2017-12-16T09:21:50.579Z,27.8
2017-12-16T09:22:52.325Z,30.0
2017-12-16T09:23:54.045Z,26.7
2017-12-16T09:24:55.774Z,23.8
2017-12-16T09:25:57.576Z,25.4
2017-12-16T09:26:59.286Z,32.3
2017-12-16T09:28:00.987Z,32.6
2017-12-16T09:29:02.712Z,28.2
2017-12-16T09:30:04.533Z,26.1
2017-12-16T09:31:06.279Z,25.2
2017-12-16T09:32:08.010Z,28.1
2017-12-16T09:33:09.845Z,27.5
2017-12-16T09:34:11.564Z,26.5
2017-12-16T09:35:13.568Z,29.4
2017-12-16T09:36:15.302Z,27.7
2017-12-16T09:37:17.036Z,23.8
2017-12-16T09:38:18.712Z,25.2
2017-12-16T09:39:20.467Z,28.6
2017-12-16T09:40:22.165Z,29.3
2017-12-16T09:41:25.520Z,28.2
2017-12-16T09:42:27.281Z,28.1
2017-12-16T09:43:29.007Z,29.5
2017-12-16T09:44:30.711Z,29.1
2017-12-16T09:45:32.457Z,29.4
2017-12-16T09:46:34.236Z,26.0
2017-12-16T09:47:36.156Z,27.1
2017-12-16T09:48:37.866Z,21.8
2017-12-16T09:49:39.607Z,19.0
2017-12-16T09:50:41.374Z,20.6
2017-12-16T09:51:44.253Z,20.7
2017-12-16T09:52:45.944Z,21.0
2017-12-16T09:53:47.654Z,23.6
2017-12-16T09:54:49.382Z,22.9
2017-12-16T09:55:51.197Z,21.8
2017-12-16T09:56:52.981Z,20.1
2017-12-16T09:57:54.660Z,20.2
2017-12-16T09:58:56.349Z,20.4
2017-12-16T09:59:58.111Z,19.4
2017-12-16T10:01:00.690Z,18.2
2017-12-16T10:02:03.320Z,18.0
2017-12-16T10:03:04.906Z,20.0
2017-12-16T10:04:06.614Z,18.8
2017-12-16T10:05:08.322Z,17.3
2017-12-16T10:06:10.048Z,16.3
2017-12-16T10:07:11.821Z,16.3
2017-12-16T10:08:13.547Z,17.3
2017-12-16T10:09:15.252Z,15.7
2017-12-16T10:10:19.873Z,15.0
2017-12-16T10:11:21.824Z,11.8
2017-12-16T10:12:23.599Z,13.4
2017-12-16T10:13:25.364Z,14.2
2017-12-16T10:14:27.070Z,15.7
2017-12-16T10:15:28.789Z,16.3
2017-12-16T10:16:30.524Z,14.4
2017-12-16T10:17:32.310Z,14.5
2017-12-16T10:18:34.095Z,13.6
2017-12-16T10:19:35.847Z,15.2
2017-12-16T10:20:37.580Z,16.1
2017-12-16T10:21:39.355Z,15.9
2017-12-16T10:22:41.105Z,16.7
2017-12-16T10:23:42.858Z,19.2
2017-12-16T10:24:44.608Z,17.3
2017-12-16T10:25:46.318Z,16.2
2017-12-16T10:26:48.054Z,17.3
2017-12-16T10:27:49.816Z,16.2
2017-12-16T10:28:51.517Z,17.5
2017-12-16T10:29:53.208Z,16.5
2017-12-16T10:30:54.899Z,16.6
2017-12-16T10:31:56.697Z,14.7
2017-12-16T10:32:58.442Z,16.1
2017-12-16T10:34:00.309Z,17.0
2017-12-16T10:35:02.094Z,18.1
2017-12-16T10:36:03.850Z,18.6
2017-12-16T10:37:05.620Z,20.7
2017-12-16T10:38:07.338Z,21.5
2017-12-16T10:39:09.120Z,23.3
2017-12-16T10:40:10.843Z,28.0
2017-12-16T10:41:12.575Z,23.0
2017-12-16T10:42:14.273Z,19.3
2017-12-16T10:43:15.989Z,18.4
2017-12-16T10:44:17.710Z,17.5
2017-12-16T10:45:19.415Z,15.6
2017-12-16T10:46:21.121Z,14.7
2017-12-16T10:47:22.888Z,14.4
2017-12-16T10:48:25.495Z,15.7
2017-12-16T10:49:27.223Z,18.5
2017-12-16T10:50:28.958Z,16.0
2017-12-16T10:51:30.698Z,16.6
2017-12-16T10:52:32.488Z,13.4
2017-12-16T10:53:34.279Z,12.1
2017-12-16T10:54:35.981Z,12.8
2017-12-16T10:55:37.664Z,12.4
2017-12-16T11:01:34.928Z,11.1
2017-12-16T11:02:36.575Z,11.2
2017-12-16T11:03:38.292Z,14.6
2017-12-16T11:04:39.948Z,17.0
2017-12-16T11:05:41.601Z,14.8
2017-12-16T11:06:43.268Z,13.0
2017-12-16T11:07:45.277Z,12.9
2017-12-16T11:08:46.910Z,13.3
2017-12-16T11:09:48.690Z,15.9
2017-12-16T11:10:50.343Z,14.6
2017-12-16T11:11:52.000Z,13.5
2017-12-16T11:12:53.653Z,14.7
2017-12-16T11:13:55.326Z,16.7
2017-12-16T11:14:56.967Z,18.3
2017-12-16T11:15:58.722Z,17.8
2017-12-16T11:17:00.567Z,19.0
2017-12-16T11:18:02.355Z,17.5
2017-12-16T11:19:04.176Z,21.7
2017-12-16T11:20:05.885Z,16.3
2017-12-16T11:21:07.658Z,15.9
2017-12-16T11:22:09.406Z,16.5
2017-12-16T11:23:11.168Z,22.2
2017-12-16T11:24:12.923Z,21.0
2017-12-16T11:25:14.623Z,16.6
2017-12-16T11:26:16.410Z,12.7
2017-12-16T11:27:18.156Z,15.1
2017-12-16T11:28:19.895Z,15.2
2017-12-16T11:29:21.522Z,14.5
2017-12-16T11:30:23.197Z,13.7
2017-12-16T11:31:25.614Z,15.1
2017-12-16T11:32:27.281Z,14.1
2017-12-16T11:33:28.948Z,12.6
2017-12-16T11:34:30.610Z,12.6
2017-12-16T11:35:32.283Z,13.3
2017-12-16T11:36:33.973Z,11.7
2017-12-16T11:37:39.861Z,12.1
2017-12-16T11:38:41.516Z,10.0
2017-12-16T11:39:43.407Z,10.5
2017-12-16T11:40:45.147Z,10.1
2017-12-16T11:41:46.902Z,10.0
2017-12-16T11:42:48.652Z,9.4
2017-12-16T11:43:50.428Z,10.1
2017-12-16T11:44:52.114Z,10.5
2017-12-16T11:45:53.836Z,9.8
2017-12-16T11:46:55.632Z,10.4
2017-12-16T11:47:57.347Z,10.4
2017-12-16T11:48:59.086Z,10.6
2017-12-16T11:50:00.815Z,10.9
2017-12-16T11:51:02.526Z,10.2
2017-12-16T11:52:04.295Z,10.1
2017-12-16T11:53:06.048Z,9.4
2017-12-16T11:54:07.785Z,8.9
2017-12-16T11:55:09.598Z,8.5
2017-12-16T11:56:11.448Z,9.8
2017-12-16T11:57:13.308Z,10.2
2017-12-16T11:58:15.066Z,9.1
2017-12-16T11:59:16.837Z,10.4
2017-12-16T12:00:18.609Z,10.9
2017-12-16T12:01:20.372Z,11.8
2017-12-16T12:02:22.159Z,10.7
2017-12-16T12:03:23.930Z,9.7
2017-12-16T12:04:25.687Z,10.0
2017-12-16T12:05:27.447Z,10.6
2017-12-16T12:06:29.202Z,10.2
2017-12-16T12:07:30.977Z,9.8
2017-12-16T12:08:32.753Z,9.8
2017-12-16T12:09:34.505Z,9.9
2017-12-16T12:10:36.295Z,10.3
2017-12-16T12:11:38.219Z,9.5
2017-12-16T12:12:40.073Z,11.3
2017-12-16T12:13:41.910Z,10.8
2017-12-16T12:14:43.736Z,10.7
2017-12-16T12:15:45.483Z,9.7
2017-12-16T12:16:47.301Z,11.2
2017-12-16T12:17:49.088Z,12.6
2017-12-16T12:18:50.802Z,14.4
2017-12-16T12:19:52.557Z,15.4
2017-12-16T12:20:54.282Z,11.6
2017-12-16T12:21:55.984Z,10.3
2017-12-16T12:22:57.977Z,10.2
2017-12-16T12:23:59.714Z,9.1
2017-12-16T12:25:01.470Z,9.9
2017-12-16T12:26:03.331Z,9.1
2017-12-16T12:27:05.076Z,9.2
2017-12-16T12:28:06.879Z,8.9
2017-12-16T12:29:08.940Z,9.5
2017-12-16T12:30:10.765Z,8.9
2017-12-16T12:31:12.607Z,9.3
2017-12-16T12:32:14.477Z,9.0
2017-12-16T12:33:16.472Z,10.5
2017-12-16T12:34:18.302Z,9.7
2017-12-16T12:35:20.350Z,10.1
2017-12-16T12:36:22.402Z,9.5
2017-12-16T12:37:24.277Z,9.1
2017-12-16T12:38:26.253Z,11.1
2017-12-16T12:39:28.156Z,10.5
2017-12-16T12:40:31.528Z,10.4
2017-12-16T12:41:33.424Z,10.3
2017-12-16T12:42:35.364Z,10.3
2017-12-16T12:43:37.213Z,9.5
2017-12-16T12:44:38.920Z,9.6
2017-12-16T12:45:40.891Z,10.2
2017-12-16T12:46:42.617Z,10.7
2017-12-16T12:47:44.452Z,10.5
2017-12-16T12:48:46.204Z,10.3
2017-12-16T12:49:48.029Z,10.7
2017-12-16T12:50:50.532Z,9.7
2017-12-16T12:51:52.332Z,9.7
2017-12-16T12:52:54.090Z,9.7
2017-12-16T12:53:55.821Z,9.7
2017-12-16T12:54:57.742Z,10.4
2017-12-16T12:55:59.561Z,11.4
2017-12-16T12:57:01.342Z,11.5
2017-12-16T12:58:03.142Z,10.7
2017-12-16T12:59:05.044Z,11.4
2017-12-16T13:00:06.828Z,11.4
2017-12-16T13:01:08.628Z,10.1
2017-12-16T13:02:10.659Z,11.2
2017-12-16T13:03:12.414Z,14.6
2017-12-16T13:04:14.179Z,11.3
2017-12-16T13:05:15.894Z,12.1
2017-12-16T13:06:17.677Z,10.3
2017-12-16T13:07:19.446Z,12.6
2017-12-16T13:08:21.179Z,9.9
2017-12-16T13:09:23.013Z,9.5
2017-12-16T13:10:25.489Z,9.2
2017-12-16T13:11:27.274Z,10.9
2017-12-16T13:12:29.037Z,9.5
2017-12-16T13:13:30.793Z,9.9
2017-12-16T13:14:32.572Z,9.9
2017-12-16T13:15:34.370Z,9.4
2017-12-16T13:16:36.101Z,8.6
2017-12-16T13:17:37.818Z,10.1
2017-12-16T13:18:39.557Z,9.4
2017-12-16T13:19:41.314Z,9.9
2017-12-16T13:20:43.081Z,9.9
2017-12-16T13:21:44.775Z,10.3
2017-12-16T13:22:46.519Z,10.6
2017-12-16T13:23:48.266Z,9.9
2017-12-16T13:24:50.008Z,10.2
2017-12-16T13:25:51.799Z,10.0
2017-12-16T13:26:53.535Z,9.6
2017-12-16T13:27:55.275Z,9.7
2017-12-16T13:28:57.144Z,9.9
2017-12-16T13:29:59.067Z,10.7
2017-12-16T13:31:00.759Z,10.5
2017-12-16T13:32:02.517Z,10.0
2017-12-16T13:33:04.329Z,10.6
2017-12-16T13:34:06.154Z,10.2
2017-12-16T13:35:07.870Z,8.7
2017-12-16T13:36:09.718Z,8.8
2017-12-16T13:37:11.461Z,9.6
2017-12-16T13:38:13.180Z,9.2
2017-12-16T13:39:14.896Z,10.0
2017-12-16T13:40:16.712Z,9.3
2017-12-16T13:41:18.523Z,10.7
2017-12-16T13:42:20.877Z,9.5
2017-12-16T13:43:22.647Z,9.4
2017-12-16T13:44:24.468Z,8.6
2017-12-16T13:45:26.300Z,9.4
2017-12-16T13:46:27.995Z,10.2
2017-12-16T13:47:29.767Z,10.7
2017-12-16T13:48:31.573Z,9.3
2017-12-16T13:49:33.288Z,9.3
2017-12-16T13:50:35.010Z,9.8
2017-12-16T13:51:36.723Z,9.6
2017-12-16T13:52:38.420Z,9.6
2017-12-16T13:53:40.174Z,9.8
2017-12-16T13:54:41.945Z,9.2
2017-12-16T13:55:43.680Z,8.6
2017-12-16T13:56:45.461Z,9.0
2017-12-16T13:57:47.185Z,8.3
2017-12-16T13:58:48.961Z,8.6
2017-12-16T13:59:50.764Z,8.9
2017-12-16T14:00:52.528Z,9.9
2017-12-16T14:01:54.263Z,10.1
2017-12-16T14:02:56.055Z,9.2
2017-12-16T14:03:59.238Z,7.8
2017-12-16T14:05:01.091Z,7.4
2017-12-16T14:06:02.774Z,7.6
2017-12-16T14:07:04.505Z,8.4
2017-12-16T14:08:06.184Z,7.3
2017-12-16T14:09:07.903Z,8.0
2017-12-16T14:10:09.618Z,7.7
2017-12-16T14:11:11.310Z,8.7
2017-12-16T14:12:13.029Z,7.7